sensor_id;sensor_type;location;lat;lon;timestamp;P1;durP1;ratioP1;P2;durP2;ratioP2
30966;SDS011;17649;51.836;8.330;2024-01-15T00:00:09;50.80;;;23.70;;
30966;SDS011;17649;51.836;8.330;2024-01-15T00:03:10;47.22;;;23.10;;
30966;SDS011;17649;51.836;8.330;2024-01-15T00:06:11;44.60;;;23.08;;
30966;SDS011;17649;51.836;8.330;2024-01-15T00:09:12;48.17;;;23.23;;
30966;SDS011;17649;51.836;8.330;2024-01-15T00:12:12;45.63;;;21.98;;
30966;SDS011;17649;51.836;8.330;2024-01-15T00:15:12;45.13;;;21.50;;
30966;SDS011;17649;51.836;8.330;2024-01-15T00:18:13;39.60;;;19.60;;
30966;SDS011;17649;51.836;8.330;2024-01-15T00:21:13;39.07;;;20.17;;
30966;SDS011;17649;51.836;8.330;2024-01-15T00:24:13;39.33;;;19.50;;
30966;SDS011;17649;51.836;8.330;2024-01-15T00:27:14;38.93;;;18.47;;
30966;SDS011;17649;51.836;8.330;2024-01-15T00:30:14;33.47;;;16.55;;
30966;SDS011;17649;51.836;8.330;2024-01-15T00:33:15;32.95;;;16.40;;
30966;SDS011;17649;51.836;8.330;2024-01-15T00:36:15;34.50;;;15.38;;
30966;SDS011;17649;51.836;8.330;2024-01-15T00:39:16;38.35;;;15.35;;
30966;SDS011;17649;51.836;8.330;2024-01-15T00:42:17;31.85;;;15.40;;
30966;SDS011;17649;51.836;8.330;2024-01-15T00:45:17;29.10;;;13.85;;
30966;SDS011;17649;51.836;8.330;2024-01-15T00:48:21;31.60;;;15.10;;
30966;SDS011;17649;51.836;8.330;2024-01-15T00:51:21;43.30;;;18.17;;
30966;SDS011;17649;51.836;8.330;2024-01-15T00:54:21;36.17;;;16.80;;
30966;SDS011;17649;51.836;8.330;2024-01-15T00:57:22;40.33;;;18.02;;
30966;SDS011;17649;51.836;8.330;2024-01-15T01:00:22;31.52;;;13.90;;
30966;SDS011;17649;51.836;8.330;2024-01-15T01:03:22;34.13;;;15.32;;
30966;SDS011;17649;51.836;8.330;2024-01-15T01:06:23;39.78;;;17.08;;
30966;SDS011;17649;51.836;8.330;2024-01-15T01:09:23;34.22;;;15.88;;
30966;SDS011;17649;51.836;8.330;2024-01-15T01:12:24;36.95;;;15.18;;
30966;SDS011;17649;51.836;8.330;2024-01-15T01:15:24;41.08;;;17.65;;
30966;SDS011;17649;51.836;8.330;2024-01-15T01:18:25;37.33;;;16.02;;
30966;SDS011;17649;51.836;8.330;2024-01-15T01:21:25;31.60;;;15.70;;
30966;SDS011;17649;51.836;8.330;2024-01-15T01:24:25;36.03;;;16.50;;
30966;SDS011;17649;51.836;8.330;2024-01-15T01:27:26;35.78;;;15.80;;
30966;SDS011;17649;51.836;8.330;2024-01-15T01:30:26;35.30;;;15.38;;
30966;SDS011;17649;51.836;8.330;2024-01-15T01:33:26;34.95;;;15.57;;
30966;SDS011;17649;51.836;8.330;2024-01-15T01:36:27;39.03;;;16.85;;
30966;SDS011;17649;51.836;8.330;2024-01-15T01:39:27;36.22;;;16.30;;
30966;SDS011;17649;51.836;8.330;2024-01-15T01:42:27;33.45;;;15.18;;
30966;SDS011;17649;51.836;8.330;2024-01-15T01:45:28;41.78;;;16.30;;
30966;SDS011;17649;51.836;8.330;2024-01-15T01:48:28;36.60;;;16.98;;
30966;SDS011;17649;51.836;8.330;2024-01-15T01:51:30;22.40;;;11.10;;
30966;SDS011;17649;51.836;8.330;2024-01-15T01:54:31;27.75;;;14.30;;
30966;SDS011;17649;51.836;8.330;2024-01-15T01:57:32;50.17;;;16.27;;
30966;SDS011;17649;51.836;8.330;2024-01-15T02:00:34;41.83;;;15.77;;
30966;SDS011;17649;51.836;8.330;2024-01-15T02:03:36;36.08;;;15.25;;
30966;SDS011;17649;51.836;8.330;2024-01-15T02:06:36;33.33;;;14.38;;
30966;SDS011;17649;51.836;8.330;2024-01-15T02:09:37;28.70;;;15.18;;
30966;SDS011;17649;51.836;8.330;2024-01-15T02:12:37;30.63;;;14.10;;
30966;SDS011;17649;51.836;8.330;2024-01-15T02:15:37;33.13;;;15.18;;
30966;SDS011;17649;51.836;8.330;2024-01-15T02:18:45;40.03;;;15.35;;
30966;SDS011;17649;51.836;8.330;2024-01-15T02:21:46;41.55;;;15.75;;
30966;SDS011;17649;51.836;8.330;2024-01-15T02:24:46;47.50;;;17.50;;
30966;SDS011;17649;51.836;8.330;2024-01-15T02:27:47;41.80;;;15.23;;
30966;SDS011;17649;51.836;8.330;2024-01-15T02:30:48;33.22;;;14.38;;
30966;SDS011;17649;51.836;8.330;2024-01-15T02:33:48;36.25;;;16.50;;
30966;SDS011;17649;51.836;8.330;2024-01-15T02:36:48;42.80;;;16.00;;
30966;SDS011;17649;51.836;8.330;2024-01-15T02:39:49;44.22;;;15.60;;
30966;SDS011;17649;51.836;8.330;2024-01-15T02:42:49;32.95;;;13.48;;
30966;SDS011;17649;51.836;8.330;2024-01-15T02:45:49;28.00;;;13.95;;
30966;SDS011;17649;51.836;8.330;2024-01-15T02:48:49;35.50;;;13.45;;
30966;SDS011;17649;51.836;8.330;2024-01-15T02:51:50;32.80;;;13.77;;
30966;SDS011;17649;51.836;8.330;2024-01-15T02:54:50;36.50;;;14.00;;
30966;SDS011;17649;51.836;8.330;2024-01-15T02:57:50;34.63;;;13.65;;
30966;SDS011;17649;51.836;8.330;2024-01-15T03:00:51;40.85;;;17.45;;
30966;SDS011;17649;51.836;8.330;2024-01-15T03:03:51;37.60;;;14.57;;
30966;SDS011;17649;51.836;8.330;2024-01-15T03:06:51;35.95;;;14.40;;
30966;SDS011;17649;51.836;8.330;2024-01-15T03:09:52;43.83;;;15.52;;
30966;SDS011;17649;51.836;8.330;2024-01-15T03:12:52;43.38;;;14.45;;
30966;SDS011;17649;51.836;8.330;2024-01-15T03:15:52;36.65;;;13.25;;
30966;SDS011;17649;51.836;8.330;2024-01-15T03:18:53;34.28;;;14.10;;
30966;SDS011;17649;51.836;8.330;2024-01-15T03:21:53;50.65;;;14.68;;
30966;SDS011;17649;51.836;8.330;2024-01-15T03:24:55;23.77;;;12.13;;
30966;SDS011;17649;51.836;8.330;2024-01-15T03:27:55;43.78;;;14.90;;
30966;SDS011;17649;51.836;8.330;2024-01-15T03:30:55;38.65;;;14.35;;
30966;SDS011;17649;51.836;8.330;2024-01-15T03:33:56;33.63;;;15.23;;
30966;SDS011;17649;51.836;8.330;2024-01-15T03:36:56;38.00;;;16.38;;
30966;SDS011;17649;51.836;8.330;2024-01-15T03:39:56;34.20;;;13.68;;
30966;SDS011;17649;51.836;8.330;2024-01-15T03:42:57;31.52;;;12.68;;
30966;SDS011;17649;51.836;8.330;2024-01-15T03:45:57;29.70;;;12.65;;
30966;SDS011;17649;51.836;8.330;2024-01-15T03:48:57;32.10;;;11.98;;
30966;SDS011;17649;51.836;8.330;2024-01-15T03:51:58;39.22;;;14.75;;
30966;SDS011;17649;51.836;8.330;2024-01-15T03:54:58;30.25;;;13.60;;
30966;SDS011;17649;51.836;8.330;2024-01-15T03:57:58;30.70;;;13.82;;
30966;SDS011;17649;51.836;8.330;2024-01-15T04:00:59;32.83;;;12.95;;
30966;SDS011;17649;51.836;8.330;2024-01-15T04:03:59;41.58;;;14.50;;
30966;SDS011;17649;51.836;8.330;2024-01-15T04:06:59;33.38;;;12.20;;
30966;SDS011;17649;51.836;8.330;2024-01-15T04:10:00;23.63;;;11.20;;
30966;SDS011;17649;51.836;8.330;2024-01-15T04:13:00;22.73;;;11.52;;
30966;SDS011;17649;51.836;8.330;2024-01-15T04:16:01;35.10;;;13.15;;
30966;SDS011;17649;51.836;8.330;2024-01-15T04:19:03;28.70;;;12.00;;
30966;SDS011;17649;51.836;8.330;2024-01-15T04:22:03;22.77;;;10.30;;
30966;SDS011;17649;51.836;8.330;2024-01-15T04:25:04;32.75;;;12.30;;
30966;SDS011;17649;51.836;8.330;2024-01-15T04:28:05;32.05;;;11.90;;
30966;SDS011;17649;51.836;8.330;2024-01-15T04:31:05;23.33;;;11.23;;
30966;SDS011;17649;51.836;8.330;2024-01-15T04:34:06;24.77;;;12.10;;
30966;SDS011;17649;51.836;8.330;2024-01-15T04:37:06;28.17;;;11.60;;
30966;SDS011;17649;51.836;8.330;2024-01-15T04:40:08;26.63;;;11.27;;
30966;SDS011;17649;51.836;8.330;2024-01-15T04:43:08;32.72;;;11.98;;
30966;SDS011;17649;51.836;8.330;2024-01-15T04:46:09;38.72;;;12.80;;
30966;SDS011;17649;51.836;8.330;2024-01-15T04:49:10;26.63;;;12.52;;
30966;SDS011;17649;51.836;8.330;2024-01-15T04:52:11;33.65;;;11.88;;
30966;SDS011;17649;51.836;8.330;2024-01-15T04:55:12;34.17;;;12.10;;
30966;SDS011;17649;51.836;8.330;2024-01-15T04:58:13;26.88;;;11.57;;
30966;SDS011;17649;51.836;8.330;2024-01-15T05:01:15;31.27;;;14.10;;
30966;SDS011;17649;51.836;8.330;2024-01-15T05:04:16;27.83;;;12.60;;
30966;SDS011;17649;51.836;8.330;2024-01-15T05:07:16;21.20;;;9.70;;
30966;SDS011;17649;51.836;8.330;2024-01-15T05:10:16;32.00;;;12.88;;
30966;SDS011;17649;51.836;8.330;2024-01-15T05:13:16;30.10;;;9.88;;
30966;SDS011;17649;51.836;8.330;2024-01-15T05:16:17;27.98;;;10.25;;
30966;SDS011;17649;51.836;8.330;2024-01-15T05:19:17;21.60;;;10.10;;
30966;SDS011;17649;51.836;8.330;2024-01-15T05:22:18;23.73;;;10.25;;
30966;SDS011;17649;51.836;8.330;2024-01-15T05:25:18;19.85;;;10.48;;
30966;SDS011;17649;51.836;8.330;2024-01-15T05:28:19;20.42;;;10.98;;
30966;SDS011;17649;51.836;8.330;2024-01-15T05:31:19;27.42;;;10.52;;
30966;SDS011;17649;51.836;8.330;2024-01-15T05:34:19;31.38;;;12.85;;
30966;SDS011;17649;51.836;8.330;2024-01-15T05:37:20;35.22;;;13.55;;
30966;SDS011;17649;51.836;8.330;2024-01-15T05:40:20;22.52;;;12.52;;
30966;SDS011;17649;51.836;8.330;2024-01-15T05:43:20;33.45;;;14.38;;
30966;SDS011;17649;51.836;8.330;2024-01-15T05:46:21;38.47;;;15.02;;
30966;SDS011;17649;51.836;8.330;2024-01-15T05:49:21;28.45;;;13.10;;
30966;SDS011;17649;51.836;8.330;2024-01-15T05:52:21;43.83;;;13.90;;
30966;SDS011;17649;51.836;8.330;2024-01-15T05:55:22;34.83;;;14.77;;
30966;SDS011;17649;51.836;8.330;2024-01-15T05:58:22;36.45;;;15.32;;
30966;SDS011;17649;51.836;8.330;2024-01-15T06:01:22;29.63;;;14.00;;
30966;SDS011;17649;51.836;8.330;2024-01-15T06:04:22;39.65;;;16.60;;
30966;SDS011;17649;51.836;8.330;2024-01-15T06:07:23;40.58;;;16.45;;
30966;SDS011;17649;51.836;8.330;2024-01-15T06:10:23;39.05;;;17.25;;
30966;SDS011;17649;51.836;8.330;2024-01-15T06:13:24;38.78;;;17.40;;
30966;SDS011;17649;51.836;8.330;2024-01-15T06:16:24;51.97;;;16.98;;
30966;SDS011;17649;51.836;8.330;2024-01-15T06:19:24;42.28;;;15.95;;
30966;SDS011;17649;51.836;8.330;2024-01-15T06:22:25;36.42;;;13.85;;
30966;SDS011;17649;51.836;8.330;2024-01-15T06:25:25;37.88;;;15.07;;
30966;SDS011;17649;51.836;8.330;2024-01-15T06:28:26;32.75;;;12.95;;
30966;SDS011;17649;51.836;8.330;2024-01-15T06:31:26;34.08;;;11.20;;
30966;SDS011;17649;51.836;8.330;2024-01-15T06:34:27;33.20;;;11.98;;
30966;SDS011;17649;51.836;8.330;2024-01-15T06:37:27;29.55;;;10.88;;
30966;SDS011;17649;51.836;8.330;2024-01-15T06:40:27;20.65;;;11.45;;
30966;SDS011;17649;51.836;8.330;2024-01-15T06:43:28;28.15;;;11.40;;
30966;SDS011;17649;51.836;8.330;2024-01-15T06:46:28;17.73;;;9.93;;
30966;SDS011;17649;51.836;8.330;2024-01-15T06:49:29;25.38;;;13.40;;
30966;SDS011;17649;51.836;8.330;2024-01-15T06:52:29;19.92;;;11.25;;
30966;SDS011;17649;51.836;8.330;2024-01-15T06:55:30;20.52;;;12.30;;
30966;SDS011;17649;51.836;8.330;2024-01-15T06:58:30;23.45;;;10.43;;
30966;SDS011;17649;51.836;8.330;2024-01-15T07:01:31;25.13;;;11.00;;
30966;SDS011;17649;51.836;8.330;2024-01-15T07:04:32;21.88;;;9.15;;
30966;SDS011;17649;51.836;8.330;2024-01-15T07:07:32;22.38;;;9.52;;
30966;SDS011;17649;51.836;8.330;2024-01-15T07:10:33;22.00;;;9.25;;
30966;SDS011;17649;51.836;8.330;2024-01-15T07:13:33;26.65;;;9.40;;
30966;SDS011;17649;51.836;8.330;2024-01-15T07:16:34;20.48;;;8.90;;
30966;SDS011;17649;51.836;8.330;2024-01-15T07:19:34;23.10;;;9.57;;
30966;SDS011;17649;51.836;8.330;2024-01-15T07:22:37;23.30;;;9.10;;
30966;SDS011;17649;51.836;8.330;2024-01-15T07:25:38;29.75;;;10.13;;
30966;SDS011;17649;51.836;8.330;2024-01-15T07:28:38;27.85;;;10.35;;
30966;SDS011;17649;51.836;8.330;2024-01-15T07:31:39;21.63;;;8.73;;
30966;SDS011;17649;51.836;8.330;2024-01-15T07:34:39;27.13;;;7.90;;
30966;SDS011;17649;51.836;8.330;2024-01-15T07:37:39;24.60;;;9.68;;
30966;SDS011;17649;51.836;8.330;2024-01-15T07:40:40;21.20;;;8.38;;
30966;SDS011;17649;51.836;8.330;2024-01-15T07:43:40;28.13;;;10.27;;
30966;SDS011;17649;51.836;8.330;2024-01-15T07:46:44;15.00;;;8.88;;
30966;SDS011;17649;51.836;8.330;2024-01-15T07:49:45;25.23;;;9.20;;
30966;SDS011;17649;51.836;8.330;2024-01-15T07:52:45;24.73;;;11.93;;
30966;SDS011;17649;51.836;8.330;2024-01-15T07:55:46;29.10;;;11.55;;
30966;SDS011;17649;51.836;8.330;2024-01-15T07:58:46;19.80;;;10.00;;
30966;SDS011;17649;51.836;8.330;2024-01-15T08:01:46;41.42;;;12.48;;
30966;SDS011;17649;51.836;8.330;2024-01-15T08:04:47;24.55;;;12.07;;
30966;SDS011;17649;51.836;8.330;2024-01-15T08:07:48;19.92;;;10.35;;
30966;SDS011;17649;51.836;8.330;2024-01-15T08:10:48;21.77;;;10.95;;
30966;SDS011;17649;51.836;8.330;2024-01-15T08:13:49;21.60;;;11.77;;
30966;SDS011;17649;51.836;8.330;2024-01-15T08:16:49;20.90;;;11.40;;
30966;SDS011;17649;51.836;8.330;2024-01-15T08:19:50;25.43;;;12.90;;
30966;SDS011;17649;51.836;8.330;2024-01-15T08:22:51;28.00;;;12.93;;
30966;SDS011;17649;51.836;8.330;2024-01-15T08:25:51;24.17;;;11.75;;
30966;SDS011;17649;51.836;8.330;2024-01-15T08:28:52;29.02;;;13.40;;
30966;SDS011;17649;51.836;8.330;2024-01-15T08:31:52;26.42;;;12.43;;
30966;SDS011;17649;51.836;8.330;2024-01-15T08:34:53;27.58;;;12.60;;
30966;SDS011;17649;51.836;8.330;2024-01-15T08:37:53;30.25;;;12.52;;
30966;SDS011;17649;51.836;8.330;2024-01-15T08:40:53;33.33;;;13.50;;
30966;SDS011;17649;51.836;8.330;2024-01-15T08:43:56;35.90;;;13.25;;
30966;SDS011;17649;51.836;8.330;2024-01-15T08:46:57;30.02;;;12.98;;
30966;SDS011;17649;51.836;8.330;2024-01-15T08:49:57;31.75;;;12.63;;
30966;SDS011;17649;51.836;8.330;2024-01-15T08:52:58;32.77;;;11.77;;
30966;SDS011;17649;51.836;8.330;2024-01-15T08:55:59;32.13;;;11.73;;
30966;SDS011;17649;51.836;8.330;2024-01-15T08:58:59;27.48;;;11.15;;
30966;SDS011;17649;51.836;8.330;2024-01-15T09:02:00;26.60;;;11.18;;
30966;SDS011;17649;51.836;8.330;2024-01-15T09:05:00;28.15;;;11.93;;
30966;SDS011;17649;51.836;8.330;2024-01-15T09:08:00;33.75;;;12.65;;
30966;SDS011;17649;51.836;8.330;2024-01-15T09:11:01;28.08;;;11.70;;
30966;SDS011;17649;51.836;8.330;2024-01-15T09:14:03;35.13;;;12.60;;
30966;SDS011;17649;51.836;8.330;2024-01-15T09:17:06;25.42;;;11.70;;
30966;SDS011;17649;51.836;8.330;2024-01-15T09:20:07;26.23;;;10.50;;
30966;SDS011;17649;51.836;8.330;2024-01-15T09:23:08;32.72;;;11.77;;
30966;SDS011;17649;51.836;8.330;2024-01-15T09:26:08;23.05;;;9.35;;
30966;SDS011;17649;51.836;8.330;2024-01-15T09:29:09;21.85;;;10.20;;
30966;SDS011;17649;51.836;8.330;2024-01-15T09:32:10;23.60;;;10.00;;
30966;SDS011;17649;51.836;8.330;2024-01-15T09:35:10;21.60;;;9.60;;
30966;SDS011;17649;51.836;8.330;2024-01-15T09:38:10;18.02;;;9.02;;
30966;SDS011;17649;51.836;8.330;2024-01-15T09:41:11;17.75;;;8.77;;
30966;SDS011;17649;51.836;8.330;2024-01-15T09:44:11;22.05;;;8.80;;
30966;SDS011;17649;51.836;8.330;2024-01-15T09:47:12;10.43;;;6.38;;
30966;SDS011;17649;51.836;8.330;2024-01-15T09:50:13;18.73;;;8.35;;
30966;SDS011;17649;51.836;8.330;2024-01-15T09:53:15;17.20;;;8.55;;
30966;SDS011;17649;51.836;8.330;2024-01-15T09:56:16;14.63;;;6.95;;
30966;SDS011;17649;51.836;8.330;2024-01-15T09:59:16;21.17;;;7.60;;
30966;SDS011;17649;51.836;8.330;2024-01-15T10:02:18;13.27;;;7.00;;
30966;SDS011;17649;51.836;8.330;2024-01-15T10:05:18;17.33;;;7.53;;
30966;SDS011;17649;51.836;8.330;2024-01-15T10:08:18;16.65;;;8.43;;
30966;SDS011;17649;51.836;8.330;2024-01-15T10:11:20;16.52;;;6.43;;
30966;SDS011;17649;51.836;8.330;2024-01-15T10:14:20;13.40;;;5.88;;
30966;SDS011;17649;51.836;8.330;2024-01-15T10:17:20;13.00;;;6.10;;
30966;SDS011;17649;51.836;8.330;2024-01-15T10:20:21;18.70;;;7.53;;
30966;SDS011;17649;51.836;8.330;2024-01-15T10:23:24;17.23;;;7.30;;
30966;SDS011;17649;51.836;8.330;2024-01-15T10:26:25;14.80;;;6.72;;
30966;SDS011;17649;51.836;8.330;2024-01-15T10:29:26;16.57;;;7.03;;
30966;SDS011;17649;51.836;8.330;2024-01-15T10:32:26;18.33;;;9.10;;
30966;SDS011;17649;51.836;8.330;2024-01-15T10:35:30;20.25;;;6.53;;
30966;SDS011;17649;51.836;8.330;2024-01-15T10:38:31;14.43;;;6.63;;
30966;SDS011;17649;51.836;8.330;2024-01-15T10:41:32;12.10;;;5.28;;
30966;SDS011;17649;51.836;8.330;2024-01-15T10:44:32;18.83;;;6.90;;
30966;SDS011;17649;51.836;8.330;2024-01-15T10:47:32;12.40;;;6.25;;
30966;SDS011;17649;51.836;8.330;2024-01-15T10:50:33;12.55;;;5.72;;
30966;SDS011;17649;51.836;8.330;2024-01-15T10:53:33;11.52;;;5.50;;
30966;SDS011;17649;51.836;8.330;2024-01-15T10:56:36;13.05;;;5.20;;
30966;SDS011;17649;51.836;8.330;2024-01-15T10:59:37;10.75;;;5.47;;
30966;SDS011;17649;51.836;8.330;2024-01-15T11:02:37;11.52;;;5.00;;
30966;SDS011;17649;51.836;8.330;2024-01-15T11:05:38;13.57;;;5.90;;
30966;SDS011;17649;51.836;8.330;2024-01-15T11:08:39;6.55;;;4.50;;
30966;SDS011;17649;51.836;8.330;2024-01-15T11:11:44;10.25;;;4.80;;
30966;SDS011;17649;51.836;8.330;2024-01-15T11:14:47;8.68;;;5.07;;
30966;SDS011;17649;51.836;8.330;2024-01-15T11:17:58;33.28;;;6.10;;
30966;SDS011;17649;51.836;8.330;2024-01-15T11:24:33;12.20;;;4.88;;
30966;SDS011;17649;51.836;8.330;2024-01-15T11:27:40;13.30;;;4.28;;
30966;SDS011;17649;51.836;8.330;2024-01-15T11:30:41;7.25;;;4.25;;
30966;SDS011;17649;51.836;8.330;2024-01-15T11:33:47;9.95;;;3.75;;
30966;SDS011;17649;51.836;8.330;2024-01-15T11:39:53;16.98;;;4.95;;
30966;SDS011;17649;51.836;8.330;2024-01-15T11:42:54;13.43;;;4.22;;
30966;SDS011;17649;51.836;8.330;2024-01-15T11:45:55;15.15;;;5.15;;
30966;SDS011;17649;51.836;8.330;2024-01-15T11:48:57;9.73;;;4.55;;
30966;SDS011;17649;51.836;8.330;2024-01-15T11:52:03;8.23;;;3.92;;
30966;SDS011;17649;51.836;8.330;2024-01-15T11:55:12;14.25;;;4.10;;
30966;SDS011;17649;51.836;8.330;2024-01-15T11:58:17;5.20;;;3.50;;
30966;SDS011;17649;51.836;8.330;2024-01-15T12:01:17;9.93;;;4.00;;
30966;SDS011;17649;51.836;8.330;2024-01-15T12:04:20;11.15;;;4.15;;
30966;SDS011;17649;51.836;8.330;2024-01-15T12:07:21;9.93;;;4.13;;
30966;SDS011;17649;51.836;8.330;2024-01-15T12:10:21;16.42;;;4.38;;
30966;SDS011;17649;51.836;8.330;2024-01-15T12:13:22;12.70;;;4.22;;
30966;SDS011;17649;51.836;8.330;2024-01-15T12:16:23;4.97;;;3.47;;
30966;SDS011;17649;51.836;8.330;2024-01-15T12:19:23;17.80;;;4.65;;
30966;SDS011;17649;51.836;8.330;2024-01-15T12:22:24;5.78;;;2.47;;
30966;SDS011;17649;51.836;8.330;2024-01-15T12:25:24;6.95;;;3.05;;
30966;SDS011;17649;51.836;8.330;2024-01-15T12:28:29;16.27;;;3.55;;
30966;SDS011;17649;51.836;8.330;2024-01-15T12:31:30;3.35;;;2.42;;
30966;SDS011;17649;51.836;8.330;2024-01-15T12:34:30;5.38;;;3.50;;
30966;SDS011;17649;51.836;8.330;2024-01-15T12:37:32;7.25;;;3.70;;
30966;SDS011;17649;51.836;8.330;2024-01-15T12:40:35;12.30;;;3.47;;
30966;SDS011;17649;51.836;8.330;2024-01-15T12:43:35;4.30;;;3.30;;
30966;SDS011;17649;51.836;8.330;2024-01-15T12:46:36;10.07;;;3.53;;
30966;SDS011;17649;51.836;8.330;2024-01-15T12:49:37;9.35;;;3.55;;
30966;SDS011;17649;51.836;8.330;2024-01-15T12:52:39;11.23;;;4.10;;
30966;SDS011;17649;51.836;8.330;2024-01-15T12:55:41;6.55;;;3.63;;
30966;SDS011;17649;51.836;8.330;2024-01-15T12:58:41;9.65;;;3.58;;
30966;SDS011;17649;51.836;8.330;2024-01-15T13:01:42;9.32;;;3.97;;
30966;SDS011;17649;51.836;8.330;2024-01-15T13:04:42;19.73;;;4.47;;
30966;SDS011;17649;51.836;8.330;2024-01-15T13:07:43;11.90;;;4.40;;
30966;SDS011;17649;51.836;8.330;2024-01-15T13:10:43;11.05;;;4.15;;
30966;SDS011;17649;51.836;8.330;2024-01-15T13:13:44;11.85;;;4.57;;
30966;SDS011;17649;51.836;8.330;2024-01-15T13:16:44;7.05;;;3.67;;
30966;SDS011;17649;51.836;8.330;2024-01-15T13:19:44;14.45;;;3.72;;
30966;SDS011;17649;51.836;8.330;2024-01-15T13:22:45;9.65;;;3.28;;
30966;SDS011;17649;51.836;8.330;2024-01-15T13:25:45;6.70;;;3.30;;
30966;SDS011;17649;51.836;8.330;2024-01-15T13:28:46;5.88;;;3.55;;
30966;SDS011;17649;51.836;8.330;2024-01-15T13:31:46;5.88;;;3.20;;
30966;SDS011;17649;51.836;8.330;2024-01-15T13:34:47;5.13;;;3.20;;
30966;SDS011;17649;51.836;8.330;2024-01-15T13:37:47;5.47;;;3.50;;
30966;SDS011;17649;51.836;8.330;2024-01-15T13:40:47;7.78;;;3.22;;
30966;SDS011;17649;51.836;8.330;2024-01-15T13:43:48;7.35;;;3.83;;
30966;SDS011;17649;51.836;8.330;2024-01-15T13:46:50;8.38;;;3.13;;
30966;SDS011;17649;51.836;8.330;2024-01-15T13:49:50;7.13;;;2.90;;
30966;SDS011;17649;51.836;8.330;2024-01-15T13:52:50;8.27;;;3.42;;
30966;SDS011;17649;51.836;8.330;2024-01-15T13:55:51;7.30;;;3.20;;
30966;SDS011;17649;51.836;8.330;2024-01-15T13:58:51;7.95;;;3.35;;
30966;SDS011;17649;51.836;8.330;2024-01-15T14:01:52;8.82;;;3.42;;
30966;SDS011;17649;51.836;8.330;2024-01-15T14:04:52;14.35;;;3.97;;
30966;SDS011;17649;51.836;8.330;2024-01-15T14:07:52;8.57;;;3.65;;
30966;SDS011;17649;51.836;8.330;2024-01-15T14:10:52;7.63;;;3.78;;
30966;SDS011;17649;51.836;8.330;2024-01-15T14:13:54;14.77;;;3.77;;
30966;SDS011;17649;51.836;8.330;2024-01-15T14:16:54;6.13;;;4.07;;
30966;SDS011;17649;51.836;8.330;2024-01-15T14:19:54;7.43;;;4.65;;
30966;SDS011;17649;51.836;8.330;2024-01-15T14:22:55;14.63;;;4.57;;
30966;SDS011;17649;51.836;8.330;2024-01-15T14:25:56;13.63;;;5.00;;
30966;SDS011;17649;51.836;8.330;2024-01-15T14:28:56;9.90;;;4.90;;
30966;SDS011;17649;51.836;8.330;2024-01-15T14:31:56;9.73;;;5.32;;
30966;SDS011;17649;51.836;8.330;2024-01-15T14:34:57;10.07;;;4.40;;
30966;SDS011;17649;51.836;8.330;2024-01-15T14:37:57;14.73;;;4.80;;
30966;SDS011;17649;51.836;8.330;2024-01-15T14:40:58;11.13;;;4.13;;
30966;SDS011;17649;51.836;8.330;2024-01-15T14:43:58;8.75;;;4.70;;
30966;SDS011;17649;51.836;8.330;2024-01-15T14:46:59;9.15;;;4.50;;
30966;SDS011;17649;51.836;8.330;2024-01-15T14:49:59;10.30;;;4.88;;
30966;SDS011;17649;51.836;8.330;2024-01-15T14:52:59;7.55;;;4.30;;
30966;SDS011;17649;51.836;8.330;2024-01-15T14:56:00;6.25;;;4.03;;
30966;SDS011;17649;51.836;8.330;2024-01-15T14:59:02;10.18;;;3.63;;
30966;SDS011;17649;51.836;8.330;2024-01-15T15:02:02;10.65;;;3.83;;
30966;SDS011;17649;51.836;8.330;2024-01-15T15:05:03;6.90;;;3.45;;
30966;SDS011;17649;51.836;8.330;2024-01-15T15:08:04;11.15;;;3.30;;
30966;SDS011;17649;51.836;8.330;2024-01-15T15:11:08;7.68;;;3.42;;
30966;SDS011;17649;51.836;8.330;2024-01-15T15:14:08;12.05;;;3.00;;
30966;SDS011;17649;51.836;8.330;2024-01-15T15:17:09;8.52;;;3.08;;
30966;SDS011;17649;51.836;8.330;2024-01-15T15:20:09;7.25;;;3.22;;
30966;SDS011;17649;51.836;8.330;2024-01-15T15:23:10;11.65;;;3.25;;
30966;SDS011;17649;51.836;8.330;2024-01-15T15:26:11;4.18;;;3.28;;
30966;SDS011;17649;51.836;8.330;2024-01-15T15:29:11;10.65;;;3.22;;
30966;SDS011;17649;51.836;8.330;2024-01-15T15:32:11;4.38;;;3.35;;
30966;SDS011;17649;51.836;8.330;2024-01-15T15:35:12;6.78;;;3.40;;
30966;SDS011;17649;51.836;8.330;2024-01-15T15:38:13;6.13;;;2.92;;
30966;SDS011;17649;51.836;8.330;2024-01-15T15:41:13;7.72;;;3.08;;
30966;SDS011;17649;51.836;8.330;2024-01-15T15:44:14;9.13;;;4.15;;
30966;SDS011;17649;51.836;8.330;2024-01-15T15:47:16;38.08;;;16.75;;
30966;SDS011;17649;51.836;8.330;2024-01-15T15:50:17;5.43;;;4.47;;
30966;SDS011;17649;51.836;8.330;2024-01-15T15:53:18;8.50;;;4.55;;
30966;SDS011;17649;51.836;8.330;2024-01-15T15:56:19;9.52;;;4.65;;
30966;SDS011;17649;51.836;8.330;2024-01-15T15:59:20;8.60;;;4.40;;
30966;SDS011;17649;51.836;8.330;2024-01-15T16:02:21;9.40;;;4.40;;
30966;SDS011;17649;51.836;8.330;2024-01-15T16:05:21;10.30;;;4.70;;
30966;SDS011;17649;51.836;8.330;2024-01-15T16:08:22;10.45;;;5.60;;
30966;SDS011;17649;51.836;8.330;2024-01-15T16:11:22;7.32;;;4.95;;
30966;SDS011;17649;51.836;8.330;2024-01-15T16:14:23;10.00;;;6.20;;
30966;SDS011;17649;51.836;8.330;2024-01-15T16:17:23;12.45;;;6.30;;
30966;SDS011;17649;51.836;8.330;2024-01-15T16:20:23;9.77;;;5.15;;
30966;SDS011;17649;51.836;8.330;2024-01-15T16:23:23;21.83;;;6.20;;
30966;SDS011;17649;51.836;8.330;2024-01-15T16:26:24;10.23;;;6.13;;
30966;SDS011;17649;51.836;8.330;2024-01-15T16:29:24;12.23;;;7.85;;
30966;SDS011;17649;51.836;8.330;2024-01-15T16:32:24;11.13;;;6.35;;
30966;SDS011;17649;51.836;8.330;2024-01-15T16:35:25;15.25;;;5.50;;
30966;SDS011;17649;51.836;8.330;2024-01-15T16:38:26;10.27;;;6.35;;
30966;SDS011;17649;51.836;8.330;2024-01-15T16:41:26;14.20;;;6.40;;
30966;SDS011;17649;51.836;8.330;2024-01-15T16:44:26;11.38;;;6.82;;
30966;SDS011;17649;51.836;8.330;2024-01-15T16:47:27;20.92;;;6.60;;
30966;SDS011;17649;51.836;8.330;2024-01-15T16:50:27;11.32;;;5.63;;
30966;SDS011;17649;51.836;8.330;2024-01-15T16:53:28;17.63;;;6.85;;
30966;SDS011;17649;51.836;8.330;2024-01-15T16:56:28;17.83;;;5.82;;
30966;SDS011;17649;51.836;8.330;2024-01-15T16:59:29;15.77;;;5.43;;
30966;SDS011;17649;51.836;8.330;2024-01-15T17:02:30;13.57;;;6.22;;
30966;SDS011;17649;51.836;8.330;2024-01-15T17:05:30;15.73;;;6.15;;
30966;SDS011;17649;51.836;8.330;2024-01-15T17:08:30;19.13;;;6.82;;
30966;SDS011;17649;51.836;8.330;2024-01-15T17:11:31;13.80;;;4.90;;
30966;SDS011;17649;51.836;8.330;2024-01-15T17:14:32;20.80;;;5.55;;
30966;SDS011;17649;51.836;8.330;2024-01-15T17:17:32;20.40;;;4.53;;
30966;SDS011;17649;51.836;8.330;2024-01-15T17:20:32;27.23;;;6.07;;
30966;SDS011;17649;51.836;8.330;2024-01-15T17:23:33;21.65;;;5.47;;
30966;SDS011;17649;51.836;8.330;2024-01-15T17:26:33;19.55;;;6.43;;
30966;SDS011;17649;51.836;8.330;2024-01-15T17:29:33;12.05;;;5.60;;
30966;SDS011;17649;51.836;8.330;2024-01-15T17:32:34;26.42;;;5.32;;
30966;SDS011;17649;51.836;8.330;2024-01-15T17:35:34;19.42;;;5.60;;
30966;SDS011;17649;51.836;8.330;2024-01-15T17:38:35;13.02;;;5.03;;
30966;SDS011;17649;51.836;8.330;2024-01-15T17:41:35;13.45;;;4.90;;
30966;SDS011;17649;51.836;8.330;2024-01-15T17:44:36;21.55;;;5.32;;
30966;SDS011;17649;51.836;8.330;2024-01-15T17:47:36;16.25;;;6.28;;
30966;SDS011;17649;51.836;8.330;2024-01-15T17:50:36;22.55;;;6.55;;
30966;SDS011;17649;51.836;8.330;2024-01-15T17:53:38;18.00;;;5.82;;